Time;durP1;ratioP1;P1;durP2;ratioP2;P2;SDS_P1;SDS_P2;PMS_P1;PMS_P2;Temp;Humidity;BMP_temperature;BMP_pressure;BME280_temperature;BME280_humidity;BME280_pressure;Samples;Min_cycle;Max_cycle;Signal;HPM_P1;HPM_P2
2021/05/30 00:01:12;;;;;;;14.70;5.28;;;11.70;99.90;;;;;;5020001;28;20060;-87
2021/05/30 00:03:38;;;;;;;11.52;5.03;;;9.90;99.90;;;;;;5037210;28;20445;-87
2021/05/30 00:06:06;;;;;;;10.98;3.92;;;9.90;99.90;;;;;;5019888;28;20025;-89
2021/05/30 00:08:32;;;;;;;12.25;4.43;;;9.20;99.90;;;;;;5019808;28;20026;-89
2021/05/30 00:10:59;;;;;;;11.75;4.40;;;9.30;99.90;;;;;;5020618;28;20026;-89
2021/05/30 00:13:25;;;;;;;12.23;4.82;;;9.80;99.90;;;;;;5019749;28;20398;-89
2021/05/30 00:15:51;;;;;;;11.05;4.00;;;8.60;99.90;;;;;;5037011;28;20021;-89
2021/05/30 00:18:17;;;;;;;8.82;3.85;;;11.30;99.90;;;;;;5019997;28;20029;-89
2021/05/30 00:20:43;;;;;;;8.68;4.53;;;9.20;99.90;;;;;;5032523;28;20394;-89
2021/05/30 00:23:09;;;;;;;10.27;3.95;;;7.30;99.90;;;;;;5028072;28;20455;-88
2021/05/30 00:25:35;;;;;;;8.95;3.80;;;7.40;99.90;;;;;;5019280;28;20056;-90
2021/05/30 00:28:08;;;;;;;9.95;3.50;;;9.10;99.90;;;;;;5037496;28;20021;-89
2021/05/30 00:30:34;;;;;;;8.50;3.47;;;9.10;99.90;;;;;;5019705;28;20087;-88
2021/05/30 00:33:00;;;;;;;8.57;3.95;;;9.20;99.90;;;;;;5036540;28;20432;-90
2021/05/30 00:35:25;;;;;;;7.85;3.78;;;12.30;99.90;;;;;;5019712;28;20062;-89
2021/05/30 00:37:51;;;;;;;7.95;3.40;;;9.40;99.90;;;;;;5019988;28;20024;-88
2021/05/30 00:40:17;;;;;;;10.90;3.83;;;12.10;99.90;;;;;;5020067;28;20021;-89
2021/05/30 00:42:43;;;;;;;8.38;4.38;;;9.00;99.90;;;;;;5037175;28;20022;-88
2021/05/30 00:45:15;;;;;;;8.65;3.58;;;9.00;99.90;;;;;;5020736;28;20390;-88
2021/05/30 00:47:43;;;;;;;10.35;3.85;;;8.20;99.90;;;;;;5019851;28;20538;-88
2021/05/30 00:50:09;;;;;;;10.85;3.83;;;9.10;99.90;;;;;;5020157;28;20029;-89
2021/05/30 00:52:43;;;;;;;14.15;3.97;;;8.90;99.90;;;;;;5020373;28;20060;-91
2021/05/30 00:55:11;;;;;;;10.52;4.07;;;10.90;99.90;;;;;;5021526;28;20021;-88
2021/05/30 00:57:38;;;;;;;6.55;3.70;;;8.70;99.90;;;;;;5022721;28;20018;-88
2021/05/30 01:00:06;;;;;;;8.32;3.22;;;9.10;99.90;;;;;;5023627;28;20082;-88
2021/05/30 01:02:35;;;;;;;6.80;2.90;;;9.50;99.90;;;;;;5040443;28;20022;-89
2021/05/30 01:05:07;;;;;;;9.90;4.15;;;9.60;99.90;;;;;;5023238;28;20052;-88
2021/05/30 01:07:40;;;;;;;10.38;4.53;;;11.90;99.90;;;;;;5022117;28;20029;-88
2021/05/30 01:10:21;;;;;;;7.55;3.22;;;11.40;99.90;;;;;;5021819;28;20032;-88
2021/05/30 01:12:48;;;;;;;7.28;3.35;;;8.40;99.90;;;;;;5021295;28;20442;-89
2021/05/30 01:15:17;;;;;;;8.50;3.97;;;8.90;99.90;;;;;;5021391;28;20034;-88
2021/05/30 01:17:44;;;;;;;10.15;3.50;;;8.90;99.90;;;;;;5022561;28;20025;-92
2021/05/30 01:20:16;;;;;;;7.35;3.13;;;7.80;99.90;;;;;;5020529;28;20017;-89
2021/05/30 01:22:44;;;;;;;5.03;2.92;;;8.50;99.90;;;;;;5020318;28;20025;-89
2021/05/30 01:25:12;;;;;;;8.13;2.80;;;6.40;99.90;;;;;;5020676;28;20117;-89
2021/05/30 01:27:38;;;;;;;10.40;3.63;;;7.80;99.90;;;;;;5022510;28;20110;-90
2021/05/30 01:30:06;;;;;;;13.25;4.55;;;9.20;99.90;;;;;;5023649;28;20026;-88
2021/05/30 01:32:32;;;;;;;12.65;3.53;;;8.60;99.90;;;;;;5021413;28;20037;-89
2021/05/30 01:34:58;;;;;;;12.95;3.83;;;8.50;99.90;;;;;;5024017;28;20116;-89
2021/05/30 01:37:25;;;;;;;12.52;3.65;;;10.90;99.90;;;;;;5026483;28;20060;-89
2021/05/30 01:39:51;;;;;;;14.70;3.65;;;11.30;99.90;;;;;;5045190;28;20025;-89
2021/05/30 01:42:18;;;;;;;7.57;3.13;;;8.20;99.90;;;;;;5046115;28;20018;-88
2021/05/30 01:44:43;;;;;;;11.07;4.82;;;11.80;99.90;;;;;;5029825;28;20121;-89
2021/05/30 01:47:09;;;;;;;10.43;3.30;;;9.10;99.90;;;;;;5028131;28;20029;-90
2021/05/30 01:49:36;;;;;;;10.40;3.20;;;10.30;99.90;;;;;;5029508;28;20036;-89
2021/05/30 01:52:03;;;;;;;7.07;3.28;;;8.90;99.90;;;;;;5029715;28;20487;-89
2021/05/30 01:54:30;;;;;;;7.32;3.35;;;6.40;99.90;;;;;;5029843;28;20029;-89
2021/05/30 01:56:57;;;;;;;8.52;3.05;;;9.30;99.90;;;;;;5030688;28;20018;-89
2021/05/30 01:59:25;;;;;;;8.75;2.95;;;10.50;99.90;;;;;;5029937;28;20025;-88
2021/05/30 02:01:54;;;;;;;7.50;3.83;;;10.80;99.90;;;;;;5029392;28;20542;-89
2021/05/30 02:04:24;;;;;;;9.48;3.15;;;10.30;99.90;;;;;;5031263;28;20554;-89
2021/05/30 02:06:58;;;;;;;6.85;3.20;;;11.00;99.90;;;;;;5036081;28;20082;-90
2021/05/30 02:09:26;;;;;;;15.70;3.10;;;11.50;99.90;;;;;;5044235;28;20005;-90
2021/05/30 02:12:01;;;;;;;7.30;3.42;;;12.20;99.90;;;;;;5044428;28;20026;-91
2021/05/30 02:14:35;;;;;;;7.10;3.28;;;8.80;99.90;;;;;;5044585;28;20012;-90
2021/05/30 02:17:02;;;;;;;8.52;3.10;;;10.60;99.90;;;;;;5044682;28;20033;-91
2021/05/30 02:19:36;;;;;;;8.13;3.20;;;8.00;99.90;;;;;;5043595;28;20029;-91
2021/05/30 02:22:09;;;;;;;10.07;4.20;;;9.10;99.90;;;;;;5031649;28;20049;-91
2021/05/30 02:24:35;;;;;;;8.93;3.30;;;8.90;99.90;;;;;;5023779;28;20406;-90
2021/05/30 02:27:01;;;;;;;7.78;3.25;;;12.30;99.90;;;;;;5023646;28;20112;-91
2021/05/30 02:29:35;;;;;;;11.93;4.10;;;9.60;99.90;;;;;;5023163;28;20032;-91
2021/05/30 02:32:06;;;;;;;10.82;3.20;;;10.60;99.90;;;;;;5023067;28;20018;-90
2021/05/30 02:35:09;;;;;;;11.32;3.92;;;7.10;99.90;;;;;;5041234;28;20045;-90
2021/05/30 02:37:37;;;;;;;12.30;3.67;;;8.10;99.90;;;;;;5034624;28;20119;-90
2021/05/30 02:40:05;;;;;;;6.35;2.85;;;9.00;99.90;;;;;;5021110;28;20420;-90
2021/05/30 02:42:31;;;;;;;8.85;2.92;;;9.10;99.90;;;;;;5020539;28;20117;-91
2021/05/30 02:45:09;;;;;;;8.73;3.17;;;8.70;99.90;;;;;;5038280;28;20489;-90
2021/05/30 02:47:36;;;;;;;7.50;3.30;;;8.90;99.90;;;;;;5021001;28;20036;-91
2021/05/30 02:50:05;;;;;;;11.45;3.85;;;10.80;99.90;;;;;;5020828;28;20120;-91
2021/05/30 02:52:32;;;;;;;6.63;3.28;;;8.90;99.90;;;;;;5020514;28;20490;-90
2021/05/30 02:54:58;;;;;;;7.63;3.20;;;9.20;99.90;;;;;;5020021;28;20025;-90
2021/05/30 02:57:24;;;;;;;9.63;3.15;;;10.60;99.90;;;;;;5020402;28;20087;-90
2021/05/30 02:59:49;;;;;;;9.00;4.35;;;8.60;99.90;;;;;;5020682;28;20048;-89
2021/05/30 03:02:27;;;;;;;10.18;3.20;;;8.90;99.90;;;;;;5020478;28;20021;-90
2021/05/30 03:04:59;;;;;;;8.25;3.40;;;9.70;99.90;;;;;;5021009;28;20509;-90
2021/05/30 03:07:27;;;;;;;7.18;3.70;;;9.10;99.90;;;;;;5021277;28;20167;-89
2021/05/30 03:09:59;;;;;;;13.52;4.60;;;11.40;99.90;;;;;;5023791;28;20458;-91
2021/05/30 03:12:25;;;;;;;10.75;4.18;;;8.70;99.90;;;;;;5022121;28;20474;-90
2021/05/30 03:15:00;;;;;;;14.60;4.10;;;9.00;99.90;;;;;;5022603;28;20056;-91
2021/05/30 03:17:29;;;;;;;8.30;3.55;;;9.00;99.90;;;;;;5023875;28;20128;-90
2021/05/30 03:20:06;;;;;;;13.13;4.10;;;11.80;99.90;;;;;;5024399;28;20500;-90
2021/05/30 03:22:49;;;;;;;6.95;3.55;;;8.80;99.90;;;;;;5021855;28;20468;-90
2021/05/30 03:25:20;;;;;;;10.40;3.90;;;11.70;99.90;;;;;;5023111;28;20064;-91
2021/05/30 03:27:49;;;;;;;7.78;3.75;;;8.40;99.90;;;;;;5028624;28;20025;-91
2021/05/30 03:30:16;;;;;;;9.57;3.80;;;5.70;99.90;;;;;;5025601;28;20103;-91
2021/05/30 03:32:42;;;;;;;9.75;4.20;;;8.70;99.90;;;;;;5026268;28;20037;-91
2021/05/30 03:35:13;;;;;;;9.93;3.58;;;11.10;99.90;;;;;;5024719;28;20026;-91
2021/05/30 03:37:39;;;;;;;7.90;4.20;;;8.20;99.90;;;;;;5026390;28;20026;-90
2021/05/30 03:42:53;;;;;;;6.32;3.17;;;7.20;99.90;;;;;;5047674;28;20386;-91
2021/05/30 03:45:35;;;;;;;10.30;3.63;;;8.10;99.90;;;;;;5026224;28;20061;-90
2021/05/30 03:48:02;;;;;;;10.32;3.50;;;10.80;99.90;;;;;;5026223;28;20037;-91
2021/05/30 03:50:28;;;;;;;7.95;3.45;;;8.40;99.90;;;;;;5026109;28;20037;-91
2021/05/30 03:53:03;;;;;;;7.13;3.35;;;8.50;99.90;;;;;;5027702;28;20014;-91
2021/05/30 03:55:29;;;;;;;9.02;4.20;;;6.20;99.90;;;;;;5024289;28;20033;-91
2021/05/30 03:58:02;;;;;;;9.38;3.72;;;11.10;99.90;;;;;;5025272;28;20017;-90
2021/05/30 04:00:33;;;;;;;7.28;3.78;;;8.00;99.90;;;;;;5026423;28;20493;-90
2021/05/30 04:05:30;;;;;;;7.43;3.35;;;8.20;99.90;;;;;;5034150;28;20045;-76
2021/05/30 04:07:55;;;;;;;5.38;2.72;;;8.30;99.90;;;;;;5035552;28;20021;-76
2021/05/30 04:10:21;;;;;;;11.07;4.38;;;8.40;99.90;;;;;;5036788;28;20474;-75
2021/05/30 04:12:47;;;;;;;12.18;3.92;;;8.40;99.90;;;;;;5035480;28;20029;-75
2021/05/30 04:15:14;;;;;;;13.30;3.83;;;8.50;99.90;;;;;;5017812;28;20021;-75
2021/05/30 04:17:40;;;;;;;8.82;3.90;;;8.50;99.90;;;;;;5035343;28;20025;-75
2021/05/30 04:20:08;;;;;;;6.82;4.25;;;8.50;99.90;;;;;;5033152;28;20108;-75
2021/05/30 04:22:34;;;;;;;7.55;3.70;;;8.60;99.90;;;;;;5037763;28;20056;-75
2021/05/30 04:25:00;;;;;;;6.70;3.75;;;8.60;99.90;;;;;;5055589;28;20112;-74
2021/05/30 04:27:26;;;;;;;5.82;3.25;;;8.60;99.90;;;;;;5018522;28;20049;-74
2021/05/30 04:29:51;;;;;;;8.15;4.47;;;8.60;99.90;;;;;;5030637;28;20075;-75
2021/05/30 04:32:17;;;;;;;8.80;3.75;;;8.60;99.90;;;;;;5036990;28;20029;-75
2021/05/30 04:34:42;;;;;;;7.95;3.25;;;8.60;99.90;;;;;;5036718;28;20020;-75
2021/05/30 04:37:08;;;;;;;8.70;3.55;;;8.70;99.90;;;;;;5053971;28;20375;-75
2021/05/30 04:39:34;;;;;;;10.88;4.05;;;8.80;99.90;;;;;;5045695;28;20026;-75
2021/05/30 04:41:59;;;;;;;14.93;4.05;;;8.70;99.90;;;;;;5017194;28;20387;-74
2021/05/30 04:44:26;;;;;;;9.82;3.03;;;8.80;99.90;;;;;;5034629;28;20394;-75
2021/05/30 04:46:51;;;;;;;8.68;3.45;;;8.80;99.90;;;;;;5018262;28;20021;-75
2021/05/30 04:49:17;;;;;;;13.93;4.18;;;8.80;99.90;;;;;;5036936;28;20036;-75
2021/05/30 04:51:43;;;;;;;6.50;2.80;;;8.90;99.90;;;;;;5054392;28;20021;-75
2021/05/30 04:54:09;;;;;;;6.78;3.33;;;9.00;99.90;;;;;;5054261;28;20078;-75
2021/05/30 04:56:34;;;;;;;12.68;3.53;;;9.10;99.90;;;;;;5054932;28;20021;-75
2021/05/30 04:59:00;;;;;;;9.63;3.30;;;9.10;99.90;;;;;;5035806;28;20028;-75
2021/05/30 05:01:26;;;;;;;8.18;3.28;;;9.20;99.90;;;;;;5054955;28;20419;-75
2021/05/30 05:03:51;;;;;;;7.15;3.38;;;9.30;99.90;;;;;;5036713;28;20391;-74
2021/05/30 05:06:17;;;;;;;7.15;3.00;;;9.40;99.90;;;;;;5037339;28;20029;-74
2021/05/30 05:08:43;;;;;;;9.57;4.70;;;9.50;99.90;;;;;;5036917;28;20022;-75
2021/05/30 05:11:09;;;;;;;10.77;3.58;;;9.50;99.90;;;;;;5034003;28;20032;-74
2021/05/30 05:13:37;;;;;;;10.10;4.28;;;9.60;99.90;;;;;;5034280;28;20111;-75
2021/05/30 05:16:03;;;;;;;4.50;2.58;;;9.70;99.90;;;;;;5022918;28;20036;-76
2021/05/30 05:18:31;;;;;;;22.42;4.32;;;9.90;99.90;;;;;;5053274;28;20032;-75
2021/05/30 05:20:58;;;;;;;8.05;3.33;;;10.00;99.90;;;;;;5053471;28;20108;-75
2021/05/30 05:23:25;;;;;;;7.63;3.42;;;10.00;99.90;;;;;;5053164;28;20470;-75
2021/05/30 05:25:55;;;;;;;10.52;3.80;;;10.20;99.90;;;;;;5035343;28;20440;-75
2021/05/30 05:28:22;;;;;;;10.77;4.15;;;10.20;99.90;;;;;;5026754;28;20056;-75
2021/05/30 05:30:49;;;;;;;10.05;3.78;;;10.30;99.90;;;;;;5033553;28;20463;-75
2021/05/30 05:33:14;;;;;;;11.57;3.17;;;10.40;99.90;;;;;;5015539;28;20025;-75
2021/05/30 05:35:40;;;;;;;10.57;4.30;;;10.60;99.90;;;;;;5015393;28;20084;-75
2021/05/30 05:38:05;;;;;;;10.70;4.45;;;10.60;99.90;;;;;;5039138;28;20021;-75
2021/05/30 05:40:31;;;;;;;8.35;2.88;;;10.70;99.90;;;;;;5042292;28;20053;-75
2021/05/30 05:42:57;;;;;;;13.13;4.65;;;10.80;99.90;;;;;;5033456;28;20022;-75
2021/05/30 05:45:24;;;;;;;12.60;4.25;;;10.90;99.90;;;;;;5033612;28;20026;-75
2021/05/30 05:47:50;;;;;;;20.27;4.60;;;11.00;99.90;;;;;;5037651;28;20029;-75
2021/05/30 05:50:17;;;;;;;11.10;4.20;;;11.10;99.90;;;;;;5052885;28;20037;-75
2021/05/30 05:52:44;;;;;;;11.25;4.88;;;11.20;99.90;;;;;;5034999;28;20029;-76
2021/05/30 05:55:10;;;;;;;9.50;3.42;;;11.20;99.90;;;;;;5052853;28;20033;-75
2021/05/30 05:57:37;;;;;;;11.38;3.90;;;11.30;99.90;;;;;;5033198;28;20099;-76
2021/05/30 06:00:08;;;;;;;9.57;4.32;;;11.30;99.90;;;;;;5015295;28;20025;-75
2021/05/30 06:02:33;;;;;;;10.35;3.60;;;11.50;99.90;;;;;;5015444;28;20022;-75
2021/05/30 06:04:59;;;;;;;9.15;4.65;;;11.50;99.90;;;;;;5032854;28;20037;-75
2021/05/30 06:07:24;;;;;;;15.05;4.88;;;11.50;99.90;;;;;;5032824;28;20092;-75
2021/05/30 06:09:53;;;;;;;14.05;4.53;;;11.50;99.90;;;;;;5052539;28;20017;-75
2021/05/30 06:12:19;;;;;;;10.15;3.78;;;11.60;99.90;;;;;;5035051;28;20021;-75
2021/05/30 06:14:45;;;;;;;15.27;4.32;;;11.70;99.90;;;;;;5052663;28;20481;-75
2021/05/30 06:17:11;;;;;;;10.43;4.28;;;11.80;99.90;;;;;;5035013;28;20021;-75
2021/05/30 06:19:37;;;;;;;12.35;4.35;;;11.80;99.90;;;;;;5034533;28;20057;-75
2021/05/30 06:22:04;;;;;;;11.93;4.50;;;11.90;99.90;;;;;;5036242;28;20021;-75
2021/05/30 06:24:31;;;;;;;16.55;4.18;;;11.90;99.90;;;;;;5018638;28;20120;-75
2021/05/30 06:26:58;;;;;;;12.55;4.32;;;12.00;99.90;;;;;;5044976;28;20024;-75
2021/05/30 06:29:23;;;;;;;11.73;4.65;;;12.10;99.90;;;;;;5056697;28;20036;-75
2021/05/30 06:31:50;;;;;;;10.02;4.18;;;12.20;99.90;;;;;;5056454;28;20466;-75
2021/05/30 06:34:15;;;;;;;16.55;4.35;;;12.30;99.90;;;;;;5038312;28;20029;-75
2021/05/30 06:36:46;;;;;;;15.65;4.22;;;12.40;99.90;;;;;;5056328;28;20151;-76
2021/05/30 06:39:12;;;;;;;11.93;4.25;;;12.40;99.90;;;;;;5044167;28;20081;-74
2021/05/30 06:41:38;;;;;;;11.70;3.80;;;12.70;99.90;;;;;;5028791;28;20021;-75
2021/05/30 06:44:06;;;;;;;9.95;4.15;;;12.60;99.90;;;;;;5033382;28;20454;-76
2021/05/30 06:46:33;;;;;;;10.65;4.00;;;12.70;99.90;;;;;;5035290;28;20036;-75
2021/05/30 06:48:59;;;;;;;13.07;4.50;;;12.80;99.90;;;;;;5060648;28;20009;-75
2021/05/30 06:51:29;;;;;;;9.70;3.70;;;12.90;99.90;;;;;;5071449;28;20029;-75
2021/05/30 06:53:56;;;;;;;12.88;4.97;;;13.40;99.90;;;;;;5051532;28;20359;-75
2021/05/30 06:56:22;;;;;;;11.85;3.97;;;13.10;99.90;;;;;;5048648;28;20028;-73
2021/05/30 06:58:48;;;;;;;10.00;4.35;;;13.30;99.90;;;;;;5043379;28;20025;-75
2021/05/30 07:01:16;;;;;;;9.10;4.43;;;13.40;99.90;;;;;;5043389;28;20085;-74
2021/05/30 07:03:42;;;;;;;11.57;4.70;;;13.50;99.90;;;;;;5056604;28;20033;-73
2021/05/30 07:06:10;;;;;;;8.75;3.90;;;13.60;99.90;;;;;;5048919;22;20035;-73
2021/05/30 07:08:35;;;;;;;11.05;4.20;;;16.40;99.90;;;;;;5035730;28;20045;-74
2021/05/30 07:11:01;;;;;;;11.30;4.15;;;13.80;99.90;;;;;;5035274;28;20021;-74
2021/05/30 07:13:26;;;;;;;10.18;4.78;;;13.90;99.90;;;;;;5035323;28;20025;-76
2021/05/30 07:15:53;;;;;;;11.75;3.80;;;14.00;99.90;;;;;;5018425;28;20513;-76
2021/05/30 07:18:20;;;;;;;8.80;4.10;;;14.10;99.90;;;;;;5017490;28;20076;-75
2021/05/30 07:20:47;;;;;;;16.15;4.38;;;14.10;99.90;;;;;;5017881;28;20022;-75
2021/05/30 07:23:14;;;;;;;8.15;4.47;;;14.10;99.90;;;;;;5021159;28;20060;-75
2021/05/30 07:25:40;;;;;;;7.93;3.95;;;14.20;99.90;;;;;;5055096;28;20049;-76
2021/05/30 07:28:06;;;;;;;9.90;4.30;;;14.30;99.90;;;;;;5054942;28;20536;-73
2021/05/30 07:30:32;;;;;;;9.60;4.07;;;14.40;99.90;;;;;;5055599;28;20079;-74
2021/05/30 07:32:58;;;;;;;11.25;4.75;;;14.60;99.90;;;;;;5053899;28;20436;-76
2021/05/30 07:35:23;;;;;;;13.98;4.35;;;14.50;99.90;;;;;;5032443;23;20037;-78
2021/05/30 07:37:49;;;;;;;8.82;4.38;;;14.60;99.90;;;;;;5019763;28;20029;-75
2021/05/30 07:40:15;;;;;;;12.02;4.05;;;14.80;99.90;;;;;;5036080;28;20025;-78
2021/05/30 07:42:41;;;;;;;9.77;4.15;;;14.90;99.90;;;;;;5037960;28;20072;-79
2021/05/30 07:45:08;;;;;;;14.48;4.45;;;15.00;99.90;;;;;;5038721;28;20037;-79
2021/05/30 07:47:33;;;;;;;10.27;4.20;;;15.20;99.90;;;;;;5018213;28;20037;-76
2021/05/30 07:49:59;;;;;;;13.05;4.65;;;15.30;99.90;;;;;;5035719;28;20057;-75
2021/05/30 07:52:24;;;;;;;8.38;3.90;;;15.40;99.90;;;;;;5017943;28;20018;-76
2021/05/30 07:54:50;;;;;;;11.13;4.03;;;15.50;99.90;;;;;;5017339;28;20127;-77
2021/05/30 07:57:16;;;;;;;7.82;3.92;;;15.70;99.90;;;;;;5018111;28;20022;-75
2021/05/30 07:59:41;;;;;;;6.55;3.83;;;15.70;99.90;;;;;;5017709;28;20037;-76
2021/05/30 08:02:07;;;;;;;9.98;4.50;;;15.80;99.90;;;;;;5035031;28;20022;-75
2021/05/30 08:04:33;;;;;;;8.00;4.07;;;15.80;99.90;;;;;;5030950;28;20021;-75
2021/05/30 08:07:00;;;;;;;9.70;4.70;;;15.90;99.90;;;;;;5055014;28;20029;-73
2021/05/30 08:09:25;;;;;;;10.77;4.50;;;16.10;99.90;;;;;;5023998;28;20433;-72
2021/05/30 08:11:53;;;;;;;7.22;3.20;;;16.20;99.90;;;;;;5035143;28;20030;-72
2021/05/30 08:14:19;;;;;;;10.82;4.35;;;16.20;99.90;;;;;;5035091;28;20025;-73
2021/05/30 08:16:45;;;;;;;11.30;4.22;;;16.20;99.90;;;;;;5034617;28;20124;-73
2021/05/30 08:19:12;;;;;;;9.52;4.57;;;16.40;99.90;;;;;;5035247;28;20040;-72
2021/05/30 08:21:38;;;;;;;7.85;4.05;;;16.50;99.90;;;;;;5017234;28;20474;-72
2021/05/30 08:24:05;;;;;;;9.25;4.15;;;16.60;99.90;;;;;;5034472;28;20135;-72
2021/05/30 08:26:30;;;;;;;9.18;3.70;;;16.70;99.10;;;;;;5034494;28;20041;-72
2021/05/30 08:28:56;;;;;;;8.90;3.63;;;16.80;99.60;;;;;;5022952;28;20032;-74
2021/05/30 08:31:22;;;;;;;10.70;4.20;;;16.90;97.60;;;;;;5069043;22;20030;31
2021/05/30 08:33:47;;;;;;;8.70;3.63;;;16.90;97.80;;;;;;5032954;28;20041;-72
2021/05/30 08:36:13;;;;;;;6.57;3.28;;;16.90;97.20;;;;;;5050051;28;20079;-75
2021/05/30 08:38:38;;;;;;;8.73;3.97;;;17.10;98.60;;;;;;5053595;28;20092;-76
2021/05/30 08:41:04;;;;;;;7.70;3.53;;;17.20;97.60;;;;;;5054051;28;20470;-75
2021/05/30 08:43:30;;;;;;;7.43;3.15;;;17.30;99.90;;;;;;5054151;28;20021;-75
2021/05/30 08:45:55;;;;;;;7.68;4.10;;;17.50;99.40;;;;;;5053525;28;20029;-75
2021/05/30 08:48:21;;;;;;;8.75;4.38;;;17.70;96.60;;;;;;5053638;28;20047;-73
2021/05/30 08:51:02;;;;;;;8.18;3.88;;;17.80;96.10;;;;;;5090078;22;20079;-73
2021/05/30 08:53:29;;;;;;;7.80;3.42;;;18.00;97.10;;;;;;5035847;28;20390;-74
2021/05/30 08:55:55;;;;;;;4.82;2.75;;;18.10;95.50;;;;;;5039968;28;20414;-73
2021/05/30 08:58:20;;;;;;;6.88;3.45;;;18.10;94.10;;;;;;5047069;28;20027;-77
2021/05/30 09:01:07;;;;;;;6.68;3.35;;;18.10;94.30;;;;;;5053546;28;20078;-73
2021/05/30 09:03:33;;;;;;;8.20;3.42;;;17.90;92.80;;;;;;5054406;28;20462;-75
2021/05/30 09:06:14;;;;;;;9.02;4.32;;;18.10;93.00;;;;;;5028133;28;20021;-73
2021/05/30 09:08:42;;;;;;;9.18;4.15;;;18.30;92.40;;;;;;5016542;28;20040;-73
2021/05/30 09:11:08;;;;;;;9.05;4.82;;;18.40;92.00;;;;;;5033679;28;20029;-76
2021/05/30 09:13:39;;;;;;;8.50;4.32;;;18.50;91.80;;;;;;5033443;28;20086;-72
2021/05/30 09:18:33;;;;;;;8.45;4.30;;;18.80;84.50;;;;;;5033373;28;20387;-75
2021/05/30 09:21:09;;;;;;;10.00;4.60;;;18.80;86.00;;;;;;5033348;28;20014;-75
2021/05/30 09:23:43;;;;;;;9.55;4.38;;;18.90;84.90;;;;;;5033332;28;20463;-75
2021/05/30 09:26:18;;;;;;;8.35;3.95;;;19.10;83.10;;;;;;5040196;28;20021;-76
2021/05/30 09:29:07;;;;;;;10.57;4.63;;;19.20;86.40;;;;;;5035528;28;20039;-77
2021/05/30 09:31:34;;;;;;;9.40;4.05;;;19.50;82.00;;;;;;5041368;28;20030;-77
2021/05/30 09:34:20;;;;;;;8.40;4.93;;;19.50;84.60;;;;;;5035839;28;20364;-77
2021/05/30 09:36:53;;;;;;;8.18;4.15;;;19.20;79.20;;;;;;5026822;28;20057;-77
2021/05/30 09:39:33;;;;;;;11.77;4.93;;;19.20;85.00;;;;;;5033630;28;20104;-77
2021/05/30 09:42:33;;;;;;;11.77;5.57;;;19.30;82.50;;;;;;5015743;28;20022;-77
2021/05/30 09:45:00;;;;;;;12.13;5.00;;;19.60;80.80;;;;;;5026704;28;20483;-77
2021/05/30 09:47:46;;;;;;;8.18;4.47;;;19.90;79.20;;;;;;5016035;28;20497;-77
2021/05/30 09:50:20;;;;;;;8.88;3.83;;;20.30;80.40;;;;;;5033011;28;20030;-77
2021/05/30 09:52:50;;;;;;;11.27;4.30;;;20.60;75.60;;;;;;5033363;28;20021;-77
2021/05/30 09:55:19;;;;;;;8.30;4.35;;;20.60;70.70;;;;;;5033934;28;20029;-77
2021/05/30 09:58:03;;;;;;;;;;;20.70;71.60;;;;;;5037560;28;20040;-76
2021/05/30 10:00:29;;;;;;;7.20;3.70;;;20.90;71.90;;;;;;5037295;28;19905;-73
2021/05/30 10:02:57;;;;;;;6.10;3.78;;;21.20;70.40;;;;;;5019217;28;20045;-73
2021/05/30 10:05:25;;;;;;;6.68;3.70;;;21.50;68.50;;;;;;5019138;28;20026;-76
2021/05/30 10:07:56;;;;;;;5.30;3.13;;;21.50;62.70;;;;;;5060268;22;20106;-72
2021/05/30 10:10:21;;;;;;;5.63;3.05;;;21.30;66.80;;;;;;5064792;28;20428;-73
2021/05/30 10:12:48;;;;;;;7.78;3.80;;;21.30;65.90;;;;;;5057022;28;20021;-73
2021/05/30 10:15:13;;;;;;;7.70;3.22;;;21.20;60.70;;;;;;5049564;28;20375;-75
2021/05/30 10:17:41;;;;;;;4.80;2.70;;;21.20;61.70;;;;;;5036559;28;20021;-76
2021/05/30 10:20:11;;;;;;;7.32;3.15;;;21.30;61.20;;;;;;5019038;28;20040;-76
2021/05/30 10:22:40;;;;;;;7.28;3.28;;;21.50;58.90;;;;;;5035961;28;20049;-75
2021/05/30 10:25:06;;;;;;;5.18;3.03;;;21.70;59.70;;;;;;5036301;28;20384;-75
2021/05/30 10:27:32;;;;;;;7.00;3.28;;;21.80;59.70;;;;;;5036506;28;20017;-76
2021/05/30 10:30:07;;;;;;;5.60;2.67;;;21.90;58.60;;;;;;5040945;28;20071;-76
2021/05/30 10:32:43;;;;;;;5.82;3.03;;;22.00;59.00;;;;;;5037527;28;20066;-76
2021/05/30 10:35:11;;;;;;;8.35;4.50;;;22.10;58.20;;;;;;5018209;28;20069;-76
2021/05/30 10:37:51;;;;;;;7.65;3.35;;;22.20;55.00;;;;;;5018719;28;20048;-72
2021/05/30 10:40:23;;;;;;;8.43;2.95;;;22.10;57.50;;;;;;4999089;28;20030;-73
2021/05/30 10:43:07;;;;;;;6.57;3.17;;;22.30;57.80;;;;;;5016640;28;20021;-72
2021/05/30 10:45:33;;;;;;;7.60;3.97;;;22.30;53.50;;;;;;5017085;28;20072;-72
2021/05/30 10:48:05;;;;;;;5.70;4.15;;;22.50;55.60;;;;;;5021771;28;20026;-75
2021/05/30 10:50:36;;;;;;;9.60;4.20;;;22.50;56.50;;;;;;5056156;28;20112;-75
2021/05/30 10:53:02;;;;;;;6.65;3.65;;;22.70;55.50;;;;;;5038530;28;20120;-76
2021/05/30 10:55:33;;;;;;;8.32;3.50;;;22.80;54.30;;;;;;5018822;28;20033;-74
2021/05/30 10:58:19;;;;;;;8.23;3.10;;;22.70;54.40;;;;;;5035985;28;20371;-73
2021/05/30 11:00:45;;;;;;;4.22;2.58;;;22.80;55.60;;;;;;5018083;28;20018;-77
2021/05/30 11:03:13;;;;;;;5.43;2.65;;;22.90;54.20;;;;;;5054253;28;20044;-73
2021/05/30 11:05:51;;;;;;;3.85;2.75;;;23.10;55.10;;;;;;5055634;28;20104;-72
2021/05/30 11:08:32;;;;;;;;;;;23.10;54.60;;;;;;5054666;28;20094;-75
2021/05/30 11:11:20;;;;;;;3.78;1.98;;;23.10;53.90;;;;;;5056156;28;19905;-73
2021/05/30 11:13:56;;;;;;;6.07;2.47;;;23.20;56.00;;;;;;5055718;28;20037;-73
2021/05/30 11:16:27;;;;;;;4.28;3.10;;;23.40;55.00;;;;;;5038097;28;20060;-75
2021/05/30 11:19:06;;;;;;;4.80;2.83;;;23.20;53.60;;;;;;5038063;28;20024;-76
2021/05/30 11:21:34;;;;;;;6.93;3.35;;;23.20;56.40;;;;;;5055171;28;20033;-77
2021/05/30 11:24:04;;;;;;;5.97;3.15;;;23.30;54.50;;;;;;5055919;28;20071;-77
2021/05/30 11:26:30;;;;;;;4.88;2.60;;;23.40;53.00;;;;;;5055575;28;20036;-76
2021/05/30 11:28:56;;;;;;;3.72;2.45;;;23.40;54.70;;;;;;5055321;28;20516;-76
2021/05/30 11:31:22;;;;;;;6.40;2.45;;;23.20;52.80;;;;;;5056499;28;20032;-76
2021/05/30 11:33:58;;;;;;;3.08;2.13;;;23.20;52.80;;;;;;5056489;28;20040;-73
2021/05/30 11:36:23;;;;;;;4.00;2.25;;;23.50;51.60;;;;;;5056560;28;20048;-76
2021/05/30 11:38:56;;;;;;;4.50;1.60;;;23.80;56.20;;;;;;5053698;28;20029;-74
2021/05/30 11:41:37;;;;;;;3.30;1.38;;;24.00;51.60;;;;;;5036187;28;20064;-73
2021/05/30 11:44:13;;;;;;;5.55;1.35;;;24.20;52.00;;;;;;5037073;28;20431;-76
2021/05/30 11:46:42;;;;;;;0.82;0.60;;;24.60;48.60;;;;;;5053846;28;20079;-75
2021/05/30 11:49:23;;;;;;;2.38;0.70;;;24.90;49.20;;;;;;5056100;28;20057;-75
2021/05/30 11:52:04;;;;;;;1.23;0.60;;;25.30;50.00;;;;;;5055927;28;20025;-76
2021/05/30 11:54:42;;;;;;;2.97;0.50;;;25.60;48.80;;;;;;5019616;28;20039;-76
2021/05/30 11:57:10;;;;;;;1.90;0.63;;;25.80;46.90;;;;;;5034575;28;20056;-75
2021/05/30 11:59:44;;;;;;;3.65;1.00;;;25.90;45.20;;;;;;5036457;28;20510;-74
2021/05/30 12:02:34;;;;;;;2.80;0.80;;;26.00;45.90;;;;;;5019636;28;20013;-73
2021/05/30 12:05:10;;;;;;;2.08;1.25;;;26.20;46.50;;;;;;5036584;28;20022;-73
2021/05/30 12:07:36;;;;;;;4.55;1.15;;;26.50;45.20;;;;;;5018428;28;20051;-72
2021/05/30 12:10:06;;;;;;;2.55;1.30;;;26.60;46.00;;;;;;5058697;22;20103;-75
2021/05/30 12:12:37;;;;;;;4.55;1.83;;;26.70;47.30;;;;;;5054664;28;20044;-75
2021/05/30 12:15:07;;;;;;;3.70;2.33;;;26.70;51.70;;;;;;5036453;28;20533;-72
2021/05/30 12:17:34;;;;;;;3.30;1.63;;;26.30;51.40;;;;;;5036080;28;20394;-72
2021/05/30 12:20:00;;;;;;;4.65;1.35;;;26.00;50.00;;;;;;5054185;28;20020;-71
2021/05/30 12:22:29;;;;;;;3.17;1.10;;;26.00;53.40;;;;;;5067681;22;20053;-75
2021/05/30 12:24:55;;;;;;;6.00;1.88;;;26.30;54.10;;;;;;5054015;28;20024;-73
2021/05/30 12:27:22;;;;;;;5.70;2.08;;;26.40;52.00;;;;;;5036193;28;20021;-74
2021/05/30 12:29:49;;;;;;;3.97;2.08;;;26.10;51.10;;;;;;5054048;28;20027;-75
2021/05/30 12:32:19;;;;;;;3.22;1.85;;;25.80;52.70;;;;;;5071132;28;20426;-75
2021/05/30 12:34:45;;;;;;;3.40;1.77;;;25.80;55.90;;;;;;5074155;28;20024;-72
2021/05/30 12:37:11;;;;;;;3.65;1.63;;;26.10;56.40;;;;;;5074147;28;20021;-73
2021/05/30 12:39:43;;;;;;;4.50;1.23;;;26.30;53.80;;;;;;5111640;22;20049;-75
2021/05/30 12:42:16;;;;;;;1.92;1.42;;;26.30;54.90;;;;;;5015794;28;20028;-72
2021/05/30 12:44:44;;;;;;;4.30;1.50;;;28.20;56.40;;;;;;5016448;28;20029;-73
2021/05/30 12:47:36;;;;;;;3.08;1.52;;;27.40;57.70;;;;;;5035020;28;20021;-73
2021/05/30 12:50:04;;;;;;;2.83;1.70;;;26.00;57.20;;;;;;5035602;28;20446;-74
2021/05/30 12:52:43;;;;;;;;;;;26.20;58.30;;;;;;5034130;28;20022;-73
2021/05/30 12:55:10;;;;;;;4.15;1.60;;;26.30;56.10;;;;;;5033863;28;19928;-73
2021/05/30 12:57:40;;;;;;;5.53;1.60;;;26.70;56.20;;;;;;5033734;28;20018;-74
2021/05/30 13:00:08;;;;;;;1.70;1.20;;;26.40;51.00;;;;;;5033861;28;20057;-73
2021/05/30 13:02:34;;;;;;;6.75;1.17;;;26.40;55.60;;;;;;5034284;28;20040;-73
2021/05/30 13:05:00;;;;;;;3.42;1.30;;;26.60;55.80;;;;;;5015884;28;20483;-73